createdAt,value
2019-02-21T00:00:01.797Z,10.20
2019-02-21T00:01:01.787Z,10.40
2019-02-21T00:02:01.777Z,10.40
2019-02-21T00:03:01.781Z,9.90
2019-02-21T00:04:01.780Z,10.40
2019-02-21T00:05:01.782Z,10.40
2019-02-21T00:06:01.748Z,10.80
2019-02-21T00:07:01.724Z,10.50
2019-02-21T00:08:01.712Z,10.80
2019-02-21T00:09:01.756Z,10.10
2019-02-21T00:10:01.691Z,10.50
2019-02-21T00:11:01.684Z,10.30
2019-02-21T00:12:01.667Z,10.20
2019-02-21T00:13:01.663Z,10.00
2019-02-21T00:14:01.672Z,10.30
2019-02-21T00:15:01.641Z,10.40
2019-02-21T00:16:01.629Z,10.20
2019-02-21T00:17:01.633Z,10.70
2019-02-21T00:18:01.601Z,10.00
2019-02-21T00:19:01.615Z,10.10
2019-02-21T00:20:01.585Z,12.30
2019-02-21T00:21:01.569Z,10.40
2019-02-21T00:22:01.558Z,11.20
2019-02-21T00:23:01.547Z,10.90
2019-02-21T00:24:01.556Z,10.90
2019-02-21T00:25:01.530Z,11.90
2019-02-21T00:26:01.561Z,11.70
2019-02-21T00:27:01.506Z,13.00
2019-02-21T00:28:01.503Z,13.40
2019-02-21T00:29:01.503Z,12.20
2019-02-21T00:30:01.502Z,12.70
2019-02-21T00:31:01.467Z,12.30
2019-02-21T00:32:01.451Z,12.50
2019-02-21T00:33:01.438Z,13.00
2019-02-21T00:34:01.435Z,13.90
2019-02-21T00:35:01.454Z,12.90
2019-02-21T00:36:01.413Z,13.00
2019-02-21T00:37:01.401Z,12.90
2019-02-21T00:38:01.384Z,12.60
2019-02-21T00:39:01.377Z,12.00
2019-02-21T00:40:01.381Z,12.90
2019-02-21T00:41:01.353Z,13.90
2019-02-21T00:42:01.341Z,12.50
2019-02-21T00:43:01.325Z,13.00
2019-02-21T00:44:01.320Z,12.10
2019-02-21T00:45:01.343Z,11.30
2019-02-21T00:46:01.299Z,12.70
2019-02-21T00:47:01.282Z,12.60
2019-02-21T00:48:01.285Z,11.60
2019-02-21T00:49:01.270Z,12.20
2019-02-21T00:50:01.280Z,11.80
2019-02-21T00:51:01.243Z,11.90
2019-02-21T00:52:02.810Z,11.60
2019-02-21T00:53:01.219Z,12.40
2019-02-21T00:54:01.211Z,11.90
2019-02-21T00:55:01.252Z,11.80
2019-02-21T00:56:01.190Z,12.50
2019-02-21T00:57:01.173Z,12.40
2019-02-21T00:58:01.162Z,12.40
2019-02-21T00:59:01.152Z,12.50
2019-02-21T01:00:01.150Z,11.90
2019-02-21T01:01:01.154Z,11.40
2019-02-21T01:02:01.128Z,11.70
2019-02-21T01:03:01.108Z,11.90
2019-02-21T01:04:01.102Z,12.40
2019-02-21T01:05:01.090Z,12.30
2019-02-21T01:06:01.107Z,11.80
2019-02-21T01:07:01.074Z,11.90
2019-02-21T01:08:01.055Z,12.20
2019-02-21T01:09:01.042Z,11.80
2019-02-21T01:10:01.037Z,11.80
2019-02-21T01:11:01.040Z,11.10
2019-02-21T01:12:01.018Z,12.30
2019-02-21T01:13:01.010Z,12.20
2019-02-21T01:14:00.988Z,11.50
2019-02-21T01:15:00.977Z,12.30
2019-02-21T01:16:00.996Z,11.30
2019-02-21T01:17:00.955Z,11.00
2019-02-21T01:18:00.942Z,11.40
2019-02-21T01:19:00.940Z,11.80
2019-02-21T01:20:00.924Z,12.10
2019-02-21T01:21:00.928Z,12.20
2019-02-21T01:22:00.918Z,11.80
2019-02-21T01:23:00.889Z,11.90
2019-02-21T01:24:00.883Z,11.40
2019-02-21T01:25:00.868Z,12.00
2019-02-21T01:26:00.863Z,12.60
2019-02-21T01:27:00.875Z,12.00
2019-02-21T01:28:00.832Z,12.60
2019-02-21T01:29:00.823Z,12.90
2019-02-21T01:30:00.818Z,11.90
2019-02-21T01:31:00.828Z,11.90
2019-02-21T01:32:00.811Z,11.40
2019-02-21T01:33:00.784Z,11.30
2019-02-21T01:34:00.773Z,12.40
2019-02-21T01:35:00.759Z,11.60
2019-02-21T01:36:00.751Z,13.40
2019-02-21T01:37:00.754Z,13.00
2019-02-21T01:38:00.730Z,11.70
2019-02-21T01:39:00.716Z,12.10
2019-02-21T01:40:00.709Z,11.70
2019-02-21T01:41:00.692Z,12.20
2019-02-21T01:42:00.699Z,11.80
2019-02-21T01:43:00.686Z,11.70
2019-02-21T01:44:00.661Z,11.50
2019-02-21T01:45:00.651Z,12.10
2019-02-21T01:46:00.646Z,11.70
2019-02-21T01:47:00.634Z,11.10
2019-02-21T01:48:00.648Z,11.60
2019-02-21T01:49:00.604Z,11.60
2019-02-21T01:50:00.593Z,12.70
2019-02-21T01:51:00.587Z,12.50
2019-02-21T01:52:00.579Z,12.60
2019-02-21T01:53:00.587Z,12.20
2019-02-21T01:54:00.549Z,11.90
2019-02-21T01:55:00.538Z,12.70
2019-02-21T01:56:00.530Z,13.00
2019-02-21T01:57:00.550Z,13.20
2019-02-21T01:58:00.507Z,13.20
2019-02-21T01:59:00.503Z,12.90
2019-02-21T02:00:00.490Z,12.50
2019-02-21T02:01:07.930Z,12.70
2019-02-21T02:02:01.520Z,12.10
2019-02-21T02:03:00.459Z,12.30
2019-02-21T02:04:00.440Z,12.70
2019-02-21T02:05:00.532Z,11.80
2019-02-21T02:06:00.421Z,12.10
2019-02-21T02:07:00.413Z,12.40
2019-02-21T02:08:00.424Z,12.30
2019-02-21T02:09:00.387Z,13.30
2019-02-21T02:10:00.384Z,13.60
2019-02-21T02:11:00.363Z,13.10
2019-02-21T02:12:00.354Z,12.40
2019-02-21T02:13:00.346Z,12.20
2019-02-21T02:14:00.353Z,12.40
2019-02-21T02:15:00.330Z,13.20
2019-02-21T02:16:00.330Z,12.40
2019-02-21T02:17:00.304Z,12.60
2019-02-21T02:18:00.311Z,12.60
2019-02-21T02:19:00.294Z,12.70
2019-02-21T02:20:00.366Z,12.40
2019-02-21T02:21:00.254Z,12.00
2019-02-21T02:22:00.247Z,12.50
2019-02-21T02:23:00.235Z,13.20
2019-02-21T02:24:00.241Z,11.90
2019-02-21T02:25:00.325Z,12.80
2019-02-21T02:26:00.202Z,12.10
2019-02-21T02:27:00.188Z,12.90
2019-02-21T02:28:00.178Z,12.40
2019-02-21T02:29:00.195Z,11.70
2019-02-21T02:30:00.394Z,12.90
2019-02-21T02:31:00.145Z,13.10
2019-02-21T02:32:00.132Z,13.00
2019-02-21T02:33:00.121Z,13.00
2019-02-21T02:34:00.130Z,13.30
2019-02-21T02:35:00.181Z,14.20
2019-02-21T02:36:00.093Z,13.20
2019-02-21T02:37:00.083Z,12.40
2019-02-21T02:38:00.066Z,13.50
2019-02-21T02:39:00.080Z,12.80
2019-02-21T02:40:00.052Z,12.70
2019-02-21T02:41:00.046Z,13.90
2019-02-21T02:42:00.021Z,13.70
2019-02-21T02:43:00.016Z,13.90
2019-02-21T02:44:00.015Z,13.30
2019-02-21T02:44:59.999Z,13.50
2019-02-21T02:45:59.988Z,13.10
2019-02-21T02:46:59.977Z,14.50
2019-02-21T02:47:59.957Z,14.40
2019-02-21T02:48:59.965Z,14.30
2019-02-21T02:49:59.952Z,13.90
2019-02-21T02:50:59.926Z,14.10
2019-02-21T02:51:59.912Z,14.00
2019-02-21T02:52:59.909Z,14.10
2019-02-21T02:53:59.896Z,13.50
2019-02-21T02:54:59.899Z,13.30
2019-02-21T02:55:59.873Z,14.20
2019-02-21T02:56:59.915Z,13.60
2019-02-21T02:57:59.847Z,13.90
2019-02-21T02:58:59.838Z,13.90
2019-02-21T02:59:59.854Z,12.70
2019-02-21T03:00:59.937Z,14.40
2019-02-21T03:01:59.811Z,13.40
2019-02-21T03:02:59.801Z,13.80
2019-02-21T03:03:59.782Z,13.70
2019-02-21T03:04:59.786Z,14.00
2019-02-21T03:05:59.765Z,13.80
2019-02-21T03:06:59.759Z,13.20
2019-02-21T03:07:59.738Z,13.60
2019-02-21T03:08:59.728Z,13.50
2019-02-21T03:09:59.752Z,14.80
2019-02-21T03:10:59.707Z,13.50
2019-02-21T03:11:59.693Z,14.90
2019-02-21T03:12:59.689Z,14.80
2019-02-21T03:13:59.674Z,14.30
2019-02-21T03:14:59.676Z,14.70
2019-02-21T03:15:59.673Z,14.30
2019-02-21T03:16:59.645Z,14.20
2019-02-21T03:17:59.636Z,14.90
2019-02-21T03:18:59.618Z,15.00
2019-02-21T03:19:59.625Z,14.70
2019-02-21T03:20:59.612Z,14.40
2019-02-21T03:21:59.586Z,14.10
2019-02-21T03:22:59.574Z,13.80
2019-02-21T03:23:59.563Z,15.10
2019-02-21T03:24:59.553Z,14.50
2019-02-21T03:25:59.555Z,14.80
2019-02-21T03:26:59.533Z,14.10
2019-02-21T03:27:59.519Z,14.70
2019-02-21T03:28:59.507Z,14.70
2019-02-21T03:29:59.506Z,14.20
2019-02-21T03:30:59.511Z,14.40
2019-02-21T03:31:59.517Z,14.90
2019-02-21T03:32:59.470Z,15.10
2019-02-21T03:33:59.459Z,15.00
2019-02-21T03:34:59.453Z,15.30
2019-02-21T03:35:59.462Z,14.90
2019-02-21T03:36:59.462Z,15.80
2019-02-21T03:37:59.410Z,15.00
2019-02-21T03:38:59.482Z,14.20
2019-02-21T03:39:59.416Z,14.60
2019-02-21T03:40:59.391Z,14.80
2019-02-21T03:41:59.373Z,14.40
2019-02-21T03:42:59.356Z,14.60
2019-02-21T03:43:59.346Z,14.90
2019-02-21T03:44:59.348Z,14.80
2019-02-21T03:45:59.362Z,15.20
2019-02-21T03:46:59.315Z,14.80
2019-02-21T03:47:59.301Z,14.30
2019-02-21T03:48:59.305Z,14.90
2019-02-21T03:49:59.282Z,15.40
2019-02-21T03:50:59.302Z,14.50
2019-02-21T03:51:59.261Z,15.00
2019-02-21T03:52:59.247Z,15.10
2019-02-21T03:53:59.235Z,14.60
2019-02-21T03:54:59.229Z,14.60
2019-02-21T03:55:59.213Z,14.50
2019-02-21T03:56:59.226Z,15.20
2019-02-21T03:57:59.200Z,14.30
2019-02-21T03:58:59.181Z,15.20
2019-02-21T03:59:59.197Z,13.90
2019-02-21T04:00:59.181Z,15.10
2019-02-21T04:02:05.310Z,14.70
2019-02-21T04:03:00.263Z,15.20
2019-02-21T04:03:59.144Z,14.90
2019-02-21T04:04:59.146Z,15.00
2019-02-21T04:05:59.108Z,14.80
2019-02-21T04:06:59.125Z,14.60
2019-02-21T04:07:59.080Z,14.80
2019-02-21T04:08:59.075Z,14.80
2019-02-21T04:09:59.061Z,14.70
2019-02-21T04:10:59.049Z,15.00
2019-02-21T04:11:59.042Z,14.10
2019-02-21T04:12:59.051Z,15.10
2019-02-21T04:13:59.016Z,14.20
2019-02-21T04:14:59.008Z,14.50
2019-02-21T04:15:59.002Z,14.80
2019-02-21T04:16:59.005Z,15.60
2019-02-21T04:17:58.990Z,14.90
2019-02-21T04:18:59.009Z,14.90
2019-02-21T04:19:58.965Z,15.40
2019-02-21T04:20:58.940Z,14.60
2019-02-21T04:21:58.927Z,14.70
2019-02-21T04:22:58.948Z,14.80
2019-02-21T04:23:58.930Z,15.20
2019-02-21T04:24:58.949Z,15.00
2019-02-21T04:25:58.934Z,14.20
2019-02-21T04:26:58.896Z,14.70
2019-02-21T04:27:58.878Z,14.30
2019-02-21T04:28:58.863Z,14.10
2019-02-21T04:29:58.847Z,14.20
2019-02-21T04:30:58.874Z,13.50
2019-02-21T04:31:58.820Z,13.30
2019-02-21T04:32:58.833Z,14.10
2019-02-21T04:33:58.801Z,14.20
2019-02-21T04:34:58.822Z,13.90
2019-02-21T04:35:58.779Z,14.30
2019-02-21T04:36:58.774Z,14.50
2019-02-21T04:37:58.799Z,13.50
2019-02-21T04:38:58.765Z,14.40
2019-02-21T04:39:58.746Z,13.40
2019-02-21T04:40:58.754Z,14.10
2019-02-21T04:41:58.726Z,13.90
2019-02-21T04:42:58.750Z,14.00
2019-02-21T04:43:58.694Z,13.50
2019-02-21T04:44:58.701Z,13.70
2019-02-21T04:45:58.701Z,14.40
2019-02-21T04:46:58.656Z,14.40
2019-02-21T04:47:58.661Z,13.90
2019-02-21T04:48:58.671Z,14.70
2019-02-21T04:49:58.624Z,14.30
2019-02-21T04:50:58.646Z,13.30
2019-02-21T04:51:58.616Z,14.80
2019-02-21T04:52:58.610Z,14.10
2019-02-21T04:53:58.613Z,14.60
2019-02-21T04:54:58.572Z,13.70
2019-02-21T04:55:58.573Z,14.00
2019-02-21T04:56:58.556Z,13.80
2019-02-21T04:57:58.542Z,14.20
2019-02-21T04:58:58.560Z,14.20
2019-02-21T04:59:58.529Z,12.90
2019-02-21T05:00:58.526Z,14.00
2019-02-21T05:01:58.488Z,14.90
2019-02-21T05:02:58.513Z,14.10
2019-02-21T05:03:58.488Z,13.80
2019-02-21T05:04:58.455Z,13.70
2019-02-21T05:05:58.454Z,14.30
2019-02-21T05:06:58.436Z,14.00
2019-02-21T05:07:58.435Z,14.40
2019-02-21T05:08:58.434Z,15.10
2019-02-21T05:09:58.675Z,14.80
2019-02-21T05:10:58.401Z,14.30
2019-02-21T05:11:58.386Z,14.40
2019-02-21T05:12:58.366Z,14.60
2019-02-21T05:13:58.398Z,13.70
2019-02-21T05:14:58.363Z,14.20
2019-02-21T05:15:58.340Z,13.70
2019-02-21T05:17:00.624Z,14.20
2019-02-21T05:17:58.323Z,15.10
2019-02-21T05:18:58.312Z,14.40
2019-02-21T05:19:58.307Z,14.70
2019-02-21T05:20:58.280Z,13.90
2019-02-21T05:21:58.271Z,13.50
2019-02-21T05:22:58.259Z,14.00
2019-02-21T05:23:58.260Z,14.10
2019-02-21T05:24:58.251Z,14.90
2019-02-21T05:25:58.232Z,14.80
2019-02-21T05:26:58.217Z,15.20
2019-02-21T05:27:58.204Z,15.00
2019-02-21T05:28:58.197Z,14.70
2019-02-21T05:29:58.205Z,14.80
2019-02-21T05:30:58.404Z,14.90
2019-02-21T05:31:58.159Z,14.80
2019-02-21T05:32:58.250Z,15.40
2019-02-21T05:33:58.135Z,15.80
2019-02-21T05:34:58.143Z,15.30
2019-02-21T05:35:58.128Z,15.10
2019-02-21T05:36:58.115Z,15.10
2019-02-21T05:37:58.100Z,15.40
2019-02-21T05:38:58.100Z,14.70
2019-02-21T05:39:58.099Z,15.40
2019-02-21T05:40:58.079Z,14.20
2019-02-21T05:41:58.051Z,14.60
2019-02-21T05:42:58.039Z,14.80
2019-02-21T05:43:58.041Z,15.70
2019-02-21T05:44:59.550Z,15.40
2019-02-21T05:45:58.026Z,15.50
2019-02-21T05:46:58.009Z,15.70
2019-02-21T05:48:01.026Z,15.60
2019-02-21T05:48:57.974Z,14.90
2019-02-21T05:49:57.961Z,15.40
2019-02-21T05:50:57.972Z,15.60
2019-02-21T05:51:57.939Z,15.40
2019-02-21T05:52:57.937Z,15.40
2019-02-21T05:53:57.921Z,15.00
2019-02-21T05:54:57.908Z,15.50
2019-02-21T05:55:57.918Z,15.40
2019-02-21T05:56:57.889Z,16.60
2019-02-21T05:57:57.873Z,16.20
2019-02-21T05:58:57.862Z,16.80
2019-02-21T05:59:57.856Z,16.90
2019-02-21T06:00:57.839Z,17.00
2019-02-21T06:01:57.858Z,16.40
2019-02-21T06:02:57.820Z,15.90
2019-02-21T06:03:57.812Z,16.50
2019-02-21T06:04:57.806Z,16.20
2019-02-21T06:05:57.810Z,17.10
2019-02-21T06:06:57.793Z,16.80
2019-02-21T06:07:57.770Z,15.90
2019-02-21T06:08:57.803Z,16.50
2019-02-21T06:09:57.745Z,15.90
2019-02-21T06:10:57.755Z,15.20
2019-02-21T06:11:57.725Z,15.60
2019-02-21T06:12:59.980Z,15.90
2019-02-21T06:13:57.706Z,15.50
2019-02-21T06:14:57.688Z,15.20
2019-02-21T06:15:57.694Z,15.50
2019-02-21T06:16:57.681Z,15.20
2019-02-21T06:17:57.665Z,15.80
2019-02-21T06:18:57.645Z,16.40
2019-02-21T06:19:57.646Z,17.00
2019-02-21T06:20:57.892Z,16.10
2019-02-21T06:22:09.726Z,16.30
2019-02-21T06:22:58.607Z,16.90
2019-02-21T06:23:57.623Z,15.60
2019-02-21T06:24:57.605Z,16.10
2019-02-21T06:25:59.270Z,17.30
2019-02-21T06:26:57.586Z,16.60
2019-02-21T06:27:58.542Z,16.10
2019-02-21T06:28:57.536Z,16.20
2019-02-21T06:29:57.524Z,15.20
2019-02-21T06:30:57.519Z,15.20
2019-02-21T06:31:57.568Z,16.10
2019-02-21T06:33:05.178Z,15.90
2019-02-21T06:33:58.479Z,16.00
2019-02-21T06:34:57.494Z,15.70
2019-02-21T06:35:57.459Z,15.90
2019-02-21T06:36:57.451Z,16.90
2019-02-21T06:37:57.468Z,16.50
2019-02-21T06:38:57.429Z,15.60
2019-02-21T06:39:57.423Z,15.40
2019-02-21T06:40:57.540Z,16.20
2019-02-21T06:41:59.937Z,16.00
2019-02-21T06:42:57.398Z,16.40
2019-02-21T06:43:57.377Z,16.70
2019-02-21T06:44:57.361Z,15.70
2019-02-21T06:45:58.094Z,17.10
2019-02-21T06:46:57.338Z,16.50
2019-02-21T06:47:57.341Z,15.90
2019-02-21T06:48:57.317Z,16.70
2019-02-21T06:49:58.797Z,16.40
2019-02-21T06:50:57.296Z,16.60
2019-02-21T06:51:57.285Z,15.20
2019-02-21T06:52:57.285Z,15.60
2019-02-21T06:53:57.265Z,16.70
2019-02-21T06:54:57.248Z,15.90
2019-02-21T06:55:57.242Z,15.20
2019-02-21T06:56:57.226Z,16.20
2019-02-21T06:57:57.250Z,16.60
2019-02-21T06:58:57.204Z,16.30
2019-02-21T06:59:57.194Z,16.30
2019-02-21T07:00:57.203Z,15.70
2019-02-21T07:01:57.172Z,15.90
2019-02-21T07:02:57.177Z,16.50
2019-02-21T07:03:57.155Z,17.60
2019-02-21T07:04:57.146Z,17.60
2019-02-21T07:05:57.128Z,17.50
2019-02-21T07:06:57.132Z,17.30
2019-02-21T07:07:57.130Z,17.20
2019-02-21T07:08:57.099Z,17.10
2019-02-21T07:09:57.091Z,17.60
2019-02-21T07:11:05.913Z,16.90
2019-02-21T07:11:58.078Z,17.20
2019-02-21T07:12:57.073Z,17.40
2019-02-21T07:13:57.044Z,17.80
2019-02-21T07:14:57.037Z,17.70
2019-02-21T07:15:58.544Z,18.10
2019-02-21T07:16:57.016Z,18.40
2019-02-21T07:17:57.042Z,18.70
2019-02-21T07:18:56.987Z,18.30
2019-02-21T07:19:56.977Z,18.80
2019-02-21T07:20:56.964Z,18.60
2019-02-21T07:21:56.955Z,17.90
2019-02-21T07:22:56.948Z,18.50
2019-02-21T07:23:56.958Z,21.30
2019-02-21T07:24:56.943Z,21.80
2019-02-21T07:25:56.918Z,20.00
2019-02-21T07:26:56.919Z,19.90
2019-02-21T07:27:58.335Z,19.00
2019-02-21T07:28:58.347Z,20.20
2019-02-21T07:29:56.866Z,20.40
2019-02-21T07:30:56.861Z,20.30
2019-02-21T07:31:56.852Z,20.60
2019-02-21T07:32:56.835Z,21.10
2019-02-21T07:33:56.854Z,19.20
2019-02-21T07:34:56.814Z,19.80
2019-02-21T07:35:56.816Z,20.60
2019-02-21T07:36:56.825Z,21.30
2019-02-21T07:37:56.788Z,20.80
2019-02-21T07:39:13.679Z,20.10
2019-02-21T07:39:57.756Z,19.30
2019-02-21T07:40:56.764Z,20.20
2019-02-21T07:41:56.743Z,18.90
2019-02-21T07:42:58.642Z,19.60
2019-02-21T07:43:56.740Z,19.70
2019-02-21T07:44:59.606Z,19.00
2019-02-21T07:45:56.705Z,19.90
2019-02-21T07:46:56.688Z,19.80
2019-02-21T07:47:56.683Z,20.10
2019-02-21T07:48:56.688Z,19.60
2019-02-21T07:49:56.665Z,19.90
2019-02-21T07:50:56.646Z,21.10
2019-02-21T07:51:56.630Z,20.00
2019-02-21T07:53:02.547Z,19.60
2019-02-21T07:53:57.632Z,20.40
2019-02-21T07:55:01.608Z,19.80
2019-02-21T07:55:57.581Z,19.90
2019-02-21T07:56:56.579Z,20.40
2019-02-21T07:57:56.558Z,20.30
2019-02-21T07:58:57.663Z,20.20
2019-02-21T07:59:56.567Z,20.30
2019-02-21T08:00:56.532Z,20.20
2019-02-21T08:01:56.517Z,20.10
2019-02-21T08:02:56.521Z,19.50
2019-02-21T08:03:56.492Z,20.20
2019-02-21T08:04:56.512Z,20.20
2019-02-21T08:05:56.482Z,21.10
2019-02-21T08:06:56.469Z,20.00
2019-02-21T08:07:56.454Z,19.50
2019-02-21T08:08:56.440Z,19.70
2019-02-21T08:09:56.428Z,19.60
2019-02-21T08:10:56.432Z,19.90
2019-02-21T08:11:56.412Z,20.20
2019-02-21T08:12:56.405Z,19.30
2019-02-21T08:13:56.387Z,19.40
2019-02-21T08:14:56.462Z,19.30
2019-02-21T08:15:56.386Z,20.60
2019-02-21T08:16:56.380Z,19.60
2019-02-21T08:17:56.355Z,20.40
2019-02-21T08:18:56.331Z,19.70
2019-02-21T08:20:07.496Z,20.60
2019-02-21T08:20:57.309Z,19.10
2019-02-21T08:21:56.299Z,20.00
2019-02-21T08:22:56.302Z,20.20
2019-02-21T08:23:59.035Z,20.60
2019-02-21T08:24:56.671Z,21.20
2019-02-21T08:25:56.281Z,21.00
2019-02-21T08:26:56.248Z,20.50
2019-02-21T08:27:56.232Z,20.40
2019-02-21T08:28:56.225Z,20.50
2019-02-21T08:29:56.213Z,20.50
2019-02-21T08:30:58.117Z,22.00
2019-02-21T08:31:56.185Z,21.50
2019-02-21T08:32:56.181Z,20.40
2019-02-21T08:33:58.640Z,21.50
2019-02-21T08:34:56.168Z,22.40
2019-02-21T08:35:57.812Z,21.70
2019-02-21T08:36:56.139Z,21.00
2019-02-21T08:37:56.119Z,21.70
2019-02-21T08:38:56.121Z,21.80
2019-02-21T08:39:56.098Z,22.20
2019-02-21T08:40:57.175Z,22.30
2019-02-21T08:41:56.096Z,21.50
2019-02-21T08:42:56.066Z,21.90
2019-02-21T08:43:57.431Z,22.30
2019-02-21T08:44:56.054Z,22.40
2019-02-21T08:45:57.579Z,21.70
2019-02-21T08:46:56.042Z,21.50
2019-02-21T08:47:56.010Z,22.20
2019-02-21T08:48:56.003Z,21.30
2019-02-21T08:49:55.997Z,22.30
2019-02-21T08:50:55.983Z,22.00
2019-02-21T08:51:55.990Z,21.70
2019-02-21T08:52:55.957Z,21.40
2019-02-21T08:53:55.947Z,21.10
2019-02-21T08:55:00.165Z,22.30
2019-02-21T08:55:56.150Z,23.90
2019-02-21T08:56:55.956Z,24.10
2019-02-21T08:57:55.907Z,24.50
2019-02-21T08:58:55.892Z,22.70
2019-02-21T08:59:55.879Z,22.30
2019-02-21T09:00:55.867Z,21.30
2019-02-21T09:01:55.887Z,21.60
2019-02-21T09:02:55.852Z,22.20
2019-02-21T09:03:55.849Z,22.70
2019-02-21T09:04:55.826Z,22.10
2019-02-21T09:05:55.814Z,22.40
2019-02-21T09:06:55.845Z,23.00
2019-02-21T09:07:55.791Z,21.70
2019-02-21T09:08:55.782Z,22.90
2019-02-21T09:09:55.775Z,22.60
2019-02-21T09:10:55.776Z,21.90
2019-02-21T09:11:55.752Z,22.10
2019-02-21T09:12:55.757Z,21.60
2019-02-21T09:13:55.980Z,23.00
2019-02-21T09:14:55.715Z,22.50
2019-02-21T09:15:56.055Z,23.60
2019-02-21T09:16:55.698Z,22.80
2019-02-21T09:17:55.714Z,21.40
2019-02-21T09:18:55.675Z,22.10
2019-02-21T09:19:55.665Z,22.40
2019-02-21T09:20:55.651Z,21.70
2019-02-21T09:21:55.653Z,22.10
2019-02-21T09:22:55.660Z,21.80
2019-02-21T09:23:56.687Z,22.10
2019-02-21T09:24:55.612Z,21.10
2019-02-21T09:25:55.612Z,20.40
2019-02-21T09:26:57.364Z,21.20
2019-02-21T09:27:55.592Z,21.50
2019-02-21T09:28:55.570Z,21.10
2019-02-21T09:29:55.556Z,21.20
2019-02-21T09:30:55.544Z,21.40
2019-02-21T09:31:55.533Z,21.70
2019-02-21T09:32:55.549Z,20.90
2019-02-21T09:33:55.510Z,21.30
2019-02-21T09:34:55.513Z,22.70
2019-02-21T09:35:56.851Z,21.80
2019-02-21T09:36:55.484Z,21.70
2019-02-21T09:37:55.489Z,22.60
2019-02-21T09:38:55.462Z,22.80
2019-02-21T09:39:55.451Z,22.20
2019-02-21T09:40:55.432Z,22.50
2019-02-21T09:41:55.443Z,22.60
2019-02-21T09:42:55.452Z,21.90
2019-02-21T09:43:55.418Z,22.80
2019-02-21T09:44:55.400Z,22.60
2019-02-21T09:45:55.391Z,22.80
2019-02-21T09:46:55.375Z,21.90
2019-02-21T09:47:55.368Z,22.10
2019-02-21T09:48:55.369Z,22.90
2019-02-21T09:49:56.506Z,22.40
2019-02-21T09:50:55.319Z,22.90
2019-02-21T09:51:55.331Z,22.60
2019-02-21T09:52:55.322Z,22.70
2019-02-21T09:53:55.317Z,23.40
2019-02-21T09:54:55.278Z,23.20
2019-02-21T09:55:55.275Z,23.50
2019-02-21T09:56:55.256Z,22.90
2019-02-21T09:57:55.250Z,21.60
2019-02-21T09:58:55.269Z,22.40
2019-02-21T09:59:55.223Z,21.80
2019-02-21T10:00:55.224Z,22.60
2019-02-21T10:01:57.533Z,22.40
2019-02-21T10:02:56.708Z,21.90
2019-02-21T10:03:57.273Z,22.00
2019-02-21T10:05:04.571Z,22.00
2019-02-21T10:05:56.163Z,22.10
2019-02-21T10:06:55.149Z,21.50
2019-02-21T10:07:55.134Z,21.70
2019-02-21T10:08:55.142Z,21.30
2019-02-21T10:09:55.141Z,22.20
2019-02-21T10:10:55.113Z,22.10
2019-02-21T10:11:55.092Z,24.10
2019-02-21T10:12:55.101Z,22.40
2019-02-21T10:13:55.105Z,20.40
2019-02-21T10:14:55.090Z,21.30
2019-02-21T10:15:55.053Z,21.60
2019-02-21T10:16:55.043Z,21.30
2019-02-21T10:17:55.027Z,20.90
2019-02-21T10:18:55.018Z,20.40
2019-02-21T10:19:55.023Z,21.20
2019-02-21T10:20:55.030Z,21.00
2019-02-21T10:21:54.979Z,21.80
2019-02-21T10:22:54.975Z,21.00
2019-02-21T10:23:56.739Z,21.00
2019-02-21T10:24:56.952Z,20.70
2019-02-21T10:25:54.970Z,20.30
2019-02-21T10:26:54.931Z,23.60
2019-02-21T10:27:54.917Z,24.60
2019-02-21T10:28:54.907Z,21.10
2019-02-21T10:29:54.897Z,21.50
2019-02-21T10:30:54.899Z,20.20
2019-02-21T10:31:54.871Z,20.70
2019-02-21T10:32:54.859Z,20.50
2019-02-21T10:33:54.867Z,20.80
2019-02-21T10:34:54.837Z,21.30
2019-02-21T10:35:54.849Z,21.20
2019-02-21T10:36:54.821Z,21.80
2019-02-21T10:37:54.807Z,21.20
2019-02-21T10:38:54.790Z,21.20
2019-02-21T10:39:54.780Z,21.60
2019-02-21T10:40:54.785Z,21.50
2019-02-21T10:41:54.757Z,21.40
2019-02-21T10:42:54.753Z,20.70
2019-02-21T10:43:54.740Z,21.10
2019-02-21T10:44:54.726Z,21.70
2019-02-21T10:45:54.753Z,21.30
2019-02-21T10:46:54.702Z,21.00
2019-02-21T10:47:54.692Z,21.40
2019-02-21T10:48:54.693Z,21.20
2019-02-21T10:49:54.674Z,22.00
2019-02-21T10:50:54.659Z,20.90
2019-02-21T10:51:54.670Z,21.70
2019-02-21T10:52:54.637Z,21.90
2019-02-21T10:53:54.626Z,21.40
2019-02-21T10:54:54.627Z,21.50
2019-02-21T10:55:54.606Z,21.90
2019-02-21T10:56:54.614Z,21.30
2019-02-21T10:57:54.579Z,21.50
2019-02-21T10:58:54.571Z,22.00
2019-02-21T10:59:54.564Z,20.90
2019-02-21T11:00:54.583Z,21.60
2019-02-21T11:01:54.545Z,21.10
2019-02-21T11:02:54.597Z,21.20
2019-02-21T11:03:54.528Z,21.50
2019-02-21T11:04:55.228Z,21.10
2019-02-21T11:05:54.498Z,22.10
2019-02-21T11:06:54.505Z,22.10
2019-02-21T11:07:54.475Z,21.20
2019-02-21T11:08:54.465Z,21.60
2019-02-21T11:09:54.474Z,19.50
2019-02-21T11:10:54.438Z,22.20
2019-02-21T11:11:54.447Z,21.50
2019-02-21T11:12:54.443Z,21.70
2019-02-21T11:13:54.415Z,21.40
2019-02-21T11:14:54.396Z,20.90
2019-02-21T11:15:54.396Z,21.00
2019-02-21T11:16:54.399Z,22.30
2019-02-21T11:17:54.389Z,21.50
2019-02-21T11:18:54.355Z,22.30
2019-02-21T11:19:54.340Z,21.70
2019-02-21T11:20:54.354Z,21.20
2019-02-21T11:21:54.360Z,21.70
2019-02-21T11:22:54.328Z,21.10
2019-02-21T11:23:54.303Z,21.60
2019-02-21T11:24:54.290Z,21.30
2019-02-21T11:25:54.280Z,21.60
2019-02-21T11:26:54.271Z,20.40
2019-02-21T11:27:54.290Z,21.40
2019-02-21T11:28:54.277Z,21.80
2019-02-21T11:29:54.247Z,21.40
2019-02-21T11:30:54.223Z,21.50
2019-02-21T11:31:54.215Z,21.00
2019-02-21T11:32:54.221Z,20.90
2019-02-21T11:33:54.231Z,20.80
2019-02-21T11:35:05.499Z,20.50
2019-02-21T11:35:55.174Z,20.90
2019-02-21T11:36:54.167Z,22.30
2019-02-21T11:37:54.166Z,20.90
2019-02-21T11:38:54.136Z,21.10
2019-02-21T11:39:54.121Z,21.20
2019-02-21T11:40:54.111Z,21.70
2019-02-21T11:41:54.106Z,21.50
2019-02-21T11:42:54.103Z,21.30
2019-02-21T11:43:54.083Z,21.70
2019-02-21T11:44:54.071Z,21.70
2019-02-21T11:45:57.280Z,22.50
2019-02-21T11:46:54.046Z,21.50
2019-02-21T11:47:54.049Z,21.90
2019-02-21T11:48:54.036Z,22.30
2019-02-21T11:49:54.017Z,21.50
2019-02-21T11:50:54.030Z,22.10
2019-02-21T11:51:54.024Z,22.30
2019-02-21T11:52:54.019Z,23.30
2019-02-21T11:53:53.983Z,21.50
2019-02-21T11:54:53.961Z,21.30
2019-02-21T11:55:53.947Z,21.10
2019-02-21T11:56:53.944Z,22.80
2019-02-21T11:57:53.954Z,21.90
2019-02-21T11:58:53.919Z,22.20
2019-02-21T11:59:53.907Z,21.70
2019-02-21T12:00:53.901Z,22.20
2019-02-21T12:01:53.896Z,22.00
2019-02-21T12:02:53.906Z,21.60
2019-02-21T12:03:53.867Z,23.40
2019-02-21T12:04:53.871Z,23.20
2019-02-21T12:05:53.855Z,22.40
2019-02-21T12:06:53.842Z,23.00
2019-02-21T12:07:53.815Z,23.20
2019-02-21T12:08:53.819Z,22.60
2019-02-21T12:09:53.802Z,21.50
2019-02-21T12:10:53.779Z,22.20
2019-02-21T12:11:53.784Z,22.00
2019-02-21T12:12:53.789Z,22.70
2019-02-21T12:13:53.768Z,22.70
2019-02-21T12:14:53.736Z,21.90
2019-02-21T12:15:53.725Z,22.40
2019-02-21T12:16:53.714Z,22.80
2019-02-21T12:17:53.704Z,21.50
2019-02-21T12:18:53.718Z,21.70
2019-02-21T12:19:53.712Z,21.70
2019-02-21T12:20:53.667Z,21.40
2019-02-21T12:21:59.188Z,21.10
2019-02-21T12:22:54.646Z,20.50
2019-02-21T12:23:53.654Z,21.10
2019-02-21T12:24:53.646Z,21.30
2019-02-21T12:25:53.637Z,22.20
2019-02-21T12:26:53.634Z,22.30
2019-02-21T12:27:53.591Z,21.30
2019-02-21T12:28:53.594Z,21.00
2019-02-21T12:29:53.570Z,20.70
2019-02-21T12:30:53.561Z,20.90
2019-02-21T12:31:53.551Z,21.60
2019-02-21T12:32:53.539Z,20.50
2019-02-21T12:33:53.550Z,19.90
2019-02-21T12:34:53.530Z,21.10
2019-02-21T12:35:53.515Z,21.30
2019-02-21T12:36:53.494Z,20.70
2019-02-21T12:37:53.489Z,20.90
2019-02-21T12:38:53.481Z,22.00
2019-02-21T12:39:53.491Z,22.00
2019-02-21T12:40:53.446Z,22.00
2019-02-21T12:41:53.451Z,22.20
2019-02-21T12:42:53.429Z,21.60
2019-02-21T12:43:53.414Z,21.40
2019-02-21T12:44:53.434Z,19.70
2019-02-21T12:45:53.396Z,20.20
2019-02-21T12:46:53.382Z,19.70
2019-02-21T12:47:54.209Z,21.20
2019-02-21T12:48:53.368Z,20.20
2019-02-21T12:49:55.466Z,20.70
2019-02-21T12:50:53.353Z,20.80
2019-02-21T12:51:53.338Z,20.10